Time;durP1;ratioP1;P1;durP2;ratioP2;P2;SDS_P1;SDS_P2;PMS_P1;PMS_P2;Temp;Humidity;BMP_temperature;BMP_pressure;BME280_temperature;BME280_humidity;BME280_pressure;Samples;Min_cycle;Max_cycle;Signal;HPM_P1;HPM_P2
2022/09/17 00:04:10;;;;;;;1.10;0.70;;;;;;;;;;10366652;28;20025;-59
2022/09/17 00:09:10;;;;;;;2.40;0.70;;;;;;;;;;10371592;28;20025;-58
2022/09/17 00:14:13;;;;;;;3.25;0.50;;;;;;;;;;10387042;28;20057;-58
2022/09/17 00:19:24;;;;;;;1.98;0.60;;;;;;;;;;10389295;28;20381;-58
2022/09/17 00:24:24;;;;;;;0.93;0.50;;;;;;;;;;10366330;28;20095;-58
2022/09/17 00:29:24;;;;;;;0.70;0.60;;;;;;;;;;10378030;28;20531;-59
2022/09/17 00:34:24;;;;;;;1.52;0.63;;;;;;;;;;10400943;28;20052;-57
2022/09/17 00:39:25;;;;;;;1.40;0.70;;;;;;;;;;10380968;28;20032;-57
2022/09/17 00:44:43;;;;;;;0.55;0.55;;;;;;;;;;10379773;28;20080;-57
2022/09/17 00:49:44;;;;;;;0.80;0.57;;;;;;;;;;10371198;28;20174;-57
2022/09/17 00:54:48;;;;;;;0.45;0.45;;;;;;;;;;10368555;28;20174;-57
2022/09/17 00:59:48;;;;;;;2.40;0.77;;;;;;;;;;10367833;28;20435;-56
2022/09/17 01:04:50;;;;;;;1.50;0.67;;;;;;;;;;10366405;28;20124;-56
2022/09/17 01:09:50;;;;;;;0.75;0.47;;;;;;;;;;10359856;28;20445;-56
2022/09/17 01:15:07;;;;;;;2.08;0.50;;;;;;;;;;10369585;28;20072;-56
2022/09/17 01:20:10;;;;;;;0.70;0.70;;;;;;;;;;10383872;28;20044;-57
2022/09/17 01:25:27;;;;;;;1.60;0.60;;;;;;;;;;10378093;28;20104;-57
2022/09/17 01:30:46;;;;;;;1.57;0.50;;;;;;;;;;10397503;28;20203;-57
2022/09/17 01:35:47;;;;;;;0.60;0.50;;;;;;;;;;10389996;28;20030;-57
2022/09/17 01:40:51;;;;;;;1.10;0.57;;;;;;;;;;10384830;28;20033;-57
2022/09/17 01:45:55;;;;;;;0.50;0.50;;;;;;;;;;10380445;28;20021;-57
2022/09/17 01:51:06;;;;;;;0.50;0.50;;;;;;;;;;10380809;28;20037;-57
2022/09/17 01:56:14;;;;;;;0.55;0.50;;;;;;;;;;10371957;28;20485;-57
2022/09/17 02:01:14;;;;;;;;;;;;;;;;;;10375441;28;20040;-57
2022/09/17 02:06:16;;;;;;;2.15;0.40;;;;;;;;;;10373539;28;19914;-57
2022/09/17 02:11:18;;;;;;;1.00;0.50;;;;;;;;;;10345462;28;20038;-56
2022/09/17 02:16:18;;;;;;;4.50;0.73;;;;;;;;;;10340366;28;20049;-59
2022/09/17 02:21:28;;;;;;;0.43;0.43;;;;;;;;;;10347067;28;20033;-59
2022/09/17 02:26:30;;;;;;;0.52;0.50;;;;;;;;;;10340166;28;20124;-59
2022/09/17 02:31:30;;;;;;;0.52;0.30;;;;;;;;;;10339160;28;20888;-57
2022/09/17 02:36:31;;;;;;;1.30;0.75;;;;;;;;;;10336781;28;20077;-59
2022/09/17 02:41:51;;;;;;;1.60;0.45;;;;;;;;;;10354097;28;20519;-58
2022/09/17 02:47:04;;;;;;;1.60;0.40;;;;;;;;;;10367349;28;20044;-58
2022/09/17 02:52:26;;;;;;;1.05;0.50;;;;;;;;;;10346113;28;20034;-57
2022/09/17 02:57:29;;;;;;;0.40;0.40;;;;;;;;;;10355994;28;20036;-57
2022/09/17 03:02:31;;;;;;;0.63;0.50;;;;;;;;;;10367141;28;20519;-57
2022/09/17 03:07:31;;;;;;;0.77;0.40;;;;;;;;;;10364874;28;20030;-57
2022/09/17 03:12:32;;;;;;;0.30;0.30;;;;;;;;;;10370231;28;20514;-57
2022/09/17 03:17:32;;;;;;;0.53;0.40;;;;;;;;;;10375360;28;20682;-57
2022/09/17 03:22:32;;;;;;;1.90;0.60;;;;;;;;;;10375457;28;20045;-57
2022/09/17 03:27:33;;;;;;;0.45;0.45;;;;;;;;;;10372421;28;20033;-56
2022/09/17 03:32:33;;;;;;;1.40;0.40;;;;;;;;;;10387254;28;20033;-57
2022/09/17 03:37:33;;;;;;;2.05;0.40;;;;;;;;;;10376879;28;20480;-57
2022/09/17 03:42:33;;;;;;;0.75;0.45;;;;;;;;;;10382127;28;20036;-57
2022/09/17 03:47:34;;;;;;;0.40;0.40;;;;;;;;;;10390810;28;20029;-57
2022/09/17 03:52:34;;;;;;;1.95;0.40;;;;;;;;;;10374787;28;20037;-57
2022/09/17 03:57:34;;;;;;;8.75;0.60;;;;;;;;;;10377423;28;20037;-57
2022/09/17 04:02:35;;;;;;;3.20;0.57;;;;;;;;;;10366689;28;20392;-58
2022/09/17 04:07:35;;;;;;;0.30;0.30;;;;;;;;;;10373447;28;20405;-57
2022/09/17 04:12:35;;;;;;;0.40;0.40;;;;;;;;;;10354479;28;20200;-57
2022/09/17 04:17:36;;;;;;;0.60;0.40;;;;;;;;;;10362189;28;20428;-57
2022/09/17 04:22:36;;;;;;;0.90;0.50;;;;;;;;;;10386023;28;20034;-56
2022/09/17 04:27:36;;;;;;;4.47;0.57;;;;;;;;;;10371349;28;20042;-55
2022/09/17 04:32:37;;;;;;;0.50;0.40;;;;;;;;;;10374138;28;20099;-55
2022/09/17 04:37:37;;;;;;;0.40;0.40;;;;;;;;;;10375362;28;20033;-57
2022/09/17 04:42:37;;;;;;;0.63;0.40;;;;;;;;;;10371951;28;20478;-56
2022/09/17 04:47:38;;;;;;;1.27;0.30;;;;;;;;;;10373131;28;20056;-57
2022/09/17 04:52:41;;;;;;;2.47;0.40;;;;;;;;;;10382237;28;20022;-57
2022/09/17 04:57:45;;;;;;;4.18;0.65;;;;;;;;;;10351691;28;20392;-57
2022/09/17 05:02:46;;;;;;;3.78;0.52;;;;;;;;;;10368824;28;20025;-57
2022/09/17 05:07:46;;;;;;;3.75;1.25;;;;;;;;;;10366264;28;20022;-58
2022/09/17 05:12:53;;;;;;;6.17;0.70;;;;;;;;;;10372988;28;20042;-58
2022/09/17 05:17:53;;;;;;;2.92;0.43;;;;;;;;;;10364646;28;20079;-58
2022/09/17 05:22:54;;;;;;;0.30;0.30;;;;;;;;;;10373675;28;20438;-58
2022/09/17 05:27:55;;;;;;;1.85;0.50;;;;;;;;;;10364712;28;20467;-59
2022/09/17 05:32:59;;;;;;;0.40;0.40;;;;;;;;;;10380804;28;20472;-57
2022/09/17 05:38:00;;;;;;;0.30;0.30;;;;;;;;;;10377345;28;20037;-57
2022/09/17 05:43:01;;;;;;;1.20;0.60;;;;;;;;;;10362430;28;20026;-57
2022/09/17 05:48:03;;;;;;;0.80;0.30;;;;;;;;;;10358054;28;20034;-57
2022/09/17 05:53:04;;;;;;;1.55;0.55;;;;;;;;;;10361343;28;20033;-58
2022/09/17 05:58:08;;;;;;;0.43;0.40;;;;;;;;;;10363729;28;20072;-58
2022/09/17 06:03:09;;;;;;;1.15;0.52;;;;;;;;;;10353137;28;20034;-58
2022/09/17 06:08:10;;;;;;;0.93;0.40;;;;;;;;;;10355146;28;20042;-58
2022/09/17 06:13:10;;;;;;;0.37;0.30;;;;;;;;;;10366022;28;20038;-58
2022/09/17 06:18:10;;;;;;;1.83;0.38;;;;;;;;;;10364891;28;20045;-58
2022/09/17 06:23:10;;;;;;;0.20;0.20;;;;;;;;;;10378098;28;20059;-57
2022/09/17 06:28:11;;;;;;;1.08;0.50;;;;;;;;;;10367358;28;20369;-57
2022/09/17 06:33:11;;;;;;;0.40;0.38;;;;;;;;;;10369963;28;20025;-58
2022/09/17 06:38:11;;;;;;;0.50;0.40;;;;;;;;;;10372044;28;20030;-58
2022/09/17 06:43:12;;;;;;;3.25;0.30;;;;;;;;;;10380607;28;20045;-58
2022/09/17 06:48:12;;;;;;;5.78;0.70;;;;;;;;;;10360722;28;20034;-58
2022/09/17 06:53:12;;;;;;;1.73;0.60;;;;;;;;;;10376587;28;20418;-58
2022/09/17 06:58:12;;;;;;;3.50;0.60;;;;;;;;;;10378947;28;20101;-59
2022/09/17 07:03:13;;;;;;;0.97;0.50;;;;;;;;;;10374283;28;20033;-58
2022/09/17 07:08:13;;;;;;;0.67;0.40;;;;;;;;;;10388354;28;20137;-58
2022/09/17 07:13:13;;;;;;;2.23;0.50;;;;;;;;;;10388407;28;20378;-58
2022/09/17 07:18:14;;;;;;;11.63;0.93;;;;;;;;;;10380481;28;20096;-58
2022/09/17 07:23:15;;;;;;;4.95;0.50;;;;;;;;;;10405130;28;20052;-58
2022/09/17 07:28:15;;;;;;;1.33;0.57;;;;;;;;;;10404218;28;20029;-59
2022/09/17 07:33:17;;;;;;;2.25;0.45;;;;;;;;;;10371167;28;20476;-57
2022/09/17 07:38:18;;;;;;;1.30;0.70;;;;;;;;;;10389399;28;20507;-55
2022/09/17 07:43:18;;;;;;;0.40;0.40;;;;;;;;;;10365619;28;20037;-56
2022/09/17 07:48:19;;;;;;;1.05;0.65;;;;;;;;;;10369012;28;20017;-57
2022/09/17 07:53:19;;;;;;;2.13;0.80;;;;;;;;;;10367401;28;20029;-55
2022/09/17 07:58:20;;;;;;;3.42;0.70;;;;;;;;;;10361721;28;20114;-56
2022/09/17 08:03:21;;;;;;;2.22;0.80;;;;;;;;;;10361341;28;20042;-57
2022/09/17 08:08:21;;;;;;;9.18;1.20;;;;;;;;;;10376157;28;20034;-58
2022/09/17 08:13:21;;;;;;;6.85;0.80;;;;;;;;;;10342023;28;20041;-59
2022/09/17 08:18:22;;;;;;;6.07;1.00;;;;;;;;;;10355879;28;20107;-59
2022/09/17 08:23:22;;;;;;;3.00;0.80;;;;;;;;;;10360537;28;20030;-57
2022/09/17 08:28:24;;;;;;;8.33;0.90;;;;;;;;;;10359026;28;20474;-59
2022/09/17 08:33:24;;;;;;;3.80;0.73;;;;;;;;;;10358509;28;20042;-58
2022/09/17 08:38:25;;;;;;;3.83;0.80;;;;;;;;;;10352603;28;20424;-58
2022/09/17 08:43:27;;;;;;;5.35;1.05;;;;;;;;;;10348578;28;20065;-58
2022/09/17 08:48:32;;;;;;;4.47;0.80;;;;;;;;;;10347294;28;20132;-58
2022/09/17 08:53:39;;;;;;;7.25;0.90;;;;;;;;;;10340165;28;20057;-57
2022/09/17 08:58:39;;;;;;;11.73;1.13;;;;;;;;;;10352012;28;20039;-58
2022/09/17 09:03:45;;;;;;;6.20;0.80;;;;;;;;;;10352008;28;20443;-58
2022/09/17 09:08:55;;;;;;;6.57;0.98;;;;;;;;;;10365215;28;20038;-57
2022/09/17 09:14:10;;;;;;;4.25;1.10;;;;;;;;;;10344218;28;20049;-57
2022/09/17 09:19:16;;;;;;;3.45;1.05;;;;;;;;;;10358846;28;20038;-53
2022/09/17 09:24:17;;;;;;;8.32;1.00;;;;;;;;;;10353244;28;20034;-55
2022/09/17 09:29:29;;;;;;;1.25;0.93;;;;;;;;;;10358103;28;20034;-57
2022/09/17 09:34:31;;;;;;;3.72;1.30;;;;;;;;;;10360128;28;20365;-58
2022/09/17 09:39:34;;;;;;;6.65;1.20;;;;;;;;;;10365146;28;20441;-58
2022/09/17 09:44:34;;;;;;;4.80;1.20;;;;;;;;;;10351162;28;20030;-57
2022/09/17 09:49:52;;;;;;;6.90;1.17;;;;;;;;;;10345086;28;20461;-57
2022/09/17 09:55:06;;;;;;;4.53;1.05;;;;;;;;;;10355532;28;20079;-58
2022/09/17 10:00:25;;;;;;;6.57;1.50;;;;;;;;;;10360779;28;20882;-57
2022/09/17 10:05:26;;;;;;;3.53;1.00;;;;;;;;;;10368619;28;20030;-57
2022/09/17 10:10:26;;;;;;;5.25;1.92;;;;;;;;;;10359613;28;20088;-58
2022/09/17 10:15:27;;;;;;;5.93;1.23;;;;;;;;;;10359358;28;20038;-58
2022/09/17 10:20:27;;;;;;;6.65;1.05;;;;;;;;;;10356148;28;20037;-57
2022/09/17 10:25:32;;;;;;;8.17;1.50;;;;;;;;;;10349357;28;20041;-58
2022/09/17 10:30:33;;;;;;;2.38;1.23;;;;;;;;;;10364437;28;20038;-59
2022/09/17 10:35:34;;;;;;;8.80;1.10;;;;;;;;;;10364717;28;20393;-57
2022/09/17 10:40:34;;;;;;;10.48;1.42;;;;;;;;;;10360130;28;20049;-59
2022/09/17 10:45:36;;;;;;;5.45;0.80;;;;;;;;;;10372468;28;20495;-60
2022/09/17 10:50:36;;;;;;;3.13;0.90;;;;;;;;;;10385338;28;20034;-56
2022/09/17 10:55:42;;;;;;;4.13;1.43;;;;;;;;;;10334375;28;20034;-58
2022/09/17 11:00:48;;;;;;;5.15;1.10;;;;;;;;;;10357262;28;20116;-60
2022/09/17 11:05:57;;;;;;;10.93;1.13;;;;;;;;;;10358171;28;20114;-57
2022/09/17 11:11:06;;;;;;;2.63;1.00;;;;;;;;;;10354408;28;20030;-58
2022/09/17 11:16:15;;;;;;;2.45;1.00;;;;;;;;;;10359783;28;20053;-57
2022/09/17 11:21:34;;;;;;;3.35;0.80;;;;;;;;;;10370380;28;20021;-58
2022/09/17 11:26:34;;;;;;;6.32;1.38;;;;;;;;;;10391279;28;20048;-58
2022/09/17 11:31:44;;;;;;;3.33;1.00;;;;;;;;;;10359332;28;20045;-57
2022/09/17 11:36:54;;;;;;;2.28;1.00;;;;;;;;;;10357475;28;20481;-57
2022/09/17 11:41:57;;;;;;;5.68;1.30;;;;;;;;;;10362232;28;20092;-57
2022/09/17 11:47:01;;;;;;;5.28;1.00;;;;;;;;;;10360604;28;20483;-57
2022/09/17 11:52:08;;;;;;;5.63;0.90;;;;;;;;;;10340786;28;20092;-56
2022/09/17 11:57:12;;;;;;;5.55;1.15;;;;;;;;;;10367927;28;20061;-57
2022/09/17 12:02:19;;;;;;;7.57;1.13;;;;;;;;;;10352313;28;20045;-55
2022/09/17 12:07:26;;;;;;;4.47;1.35;;;;;;;;;;10372283;28;20496;-58
2022/09/17 12:12:27;;;;;;;6.47;1.40;;;;;;;;;;10370733;28;20132;-58
2022/09/17 12:17:35;;;;;;;14.35;1.52;;;;;;;;;;10364176;28;20025;-58
2022/09/17 12:22:37;;;;;;;11.45;1.55;;;;;;;;;;10369873;28;20033;-58
2022/09/17 12:27:47;;;;;;;3.17;1.50;;;;;;;;;;10370132;28;20374;-58
2022/09/17 12:33:02;;;;;;;2.05;1.10;;;;;;;;;;10388422;28;20029;-58
2022/09/17 12:38:08;;;;;;;3.20;0.90;;;;;;;;;;10373391;28;20045;-58
2022/09/17 12:43:18;;;;;;;7.57;0.93;;;;;;;;;;10375670;28;20366;-58
2022/09/17 12:48:18;;;;;;;3.50;1.05;;;;;;;;;;10382611;28;20033;-58
2022/09/17 12:53:33;;;;;;;11.27;1.23;;;;;;;;;;10371921;28;20038;-58
2022/09/17 12:58:49;;;;;;;2.45;0.82;;;;;;;;;;10374041;28;20048;-58
2022/09/17 13:03:54;;;;;;;2.05;1.23;;;;;;;;;;10369940;28;20607;-58
2022/09/17 13:09:00;;;;;;;5.97;1.00;;;;;;;;;;10371264;28;20132;-58
2022/09/17 13:14:11;;;;;;;2.88;0.75;;;;;;;;;;10370710;28;20044;-58
2022/09/17 13:19:15;;;;;;;6.03;1.00;;;;;;;;;;10369475;28;20196;-58
2022/09/17 13:24:16;;;;;;;6.07;1.25;;;;;;;;;;10383462;28;20476;-58
2022/09/17 13:29:45;;;;;;;1.45;0.90;;;;;;;;;;10363736;28;20124;-58
2022/09/17 13:34:45;;;;;;;2.35;1.10;;;;;;;;;;10377722;28;20033;-57
2022/09/17 13:39:46;;;;;;;5.88;0.95;;;;;;;;;;10381893;28;20021;-58
2022/09/17 13:44:52;;;;;;;2.47;0.90;;;;;;;;;;10376961;28;20053;-58
2022/09/17 13:49:56;;;;;;;2.58;0.90;;;;;;;;;;10367214;28;20049;-58
2022/09/17 13:54:56;;;;;;;2.22;0.60;;;;;;;;;;10397679;28;20029;-58
2022/09/17 13:59:57;;;;;;;2.80;0.80;;;;;;;;;;10394521;28;20021;-58
2022/09/17 14:05:16;;;;;;;0.75;0.70;;;;;;;;;;10384626;28;20053;-58
2022/09/17 14:10:17;;;;;;;1.90;0.68;;;;;;;;;;10369620;28;20160;-58
2022/09/17 14:15:32;;;;;;;1.92;0.80;;;;;;;;;;10378490;28;20054;-59
2022/09/17 14:20:33;;;;;;;4.90;0.73;;;;;;;;;;10363802;28;20060;-58
2022/09/17 14:25:47;;;;;;;1.48;0.80;;;;;;;;;;10378435;28;20421;-58
2022/09/17 14:30:47;;;;;;;2.58;0.75;;;;;;;;;;10378500;28;20059;-58
2022/09/17 14:35:49;;;;;;;0.88;0.60;;;;;;;;;;10376378;28;20034;-58
2022/09/17 14:40:55;;;;;;;1.23;0.70;;;;;;;;;;10388951;28;20268;-58
2022/09/17 14:45:56;;;;;;;1.00;0.60;;;;;;;;;;10389879;28;20037;-61
2022/09/17 14:51:15;;;;;;;1.52;0.75;;;;;;;;;;10383572;28;20034;-57
2022/09/17 14:56:18;;;;;;;1.10;0.80;;;;;;;;;;10389069;28;20029;-57
2022/09/17 15:01:26;;;;;;;3.17;0.80;;;;;;;;;;10380647;28;20304;-57
2022/09/17 15:06:26;;;;;;;4.35;0.77;;;;;;;;;;10391905;28;20036;-58
2022/09/17 15:11:27;;;;;;;1.55;0.68;;;;;;;;;;10387681;28;20036;-59
2022/09/17 15:16:29;;;;;;;1.52;0.68;;;;;;;;;;10388106;28;20045;-58
2022/09/17 15:21:32;;;;;;;1.75;0.65;;;;;;;;;;10370051;28;20034;-58
2022/09/17 15:26:34;;;;;;;3.53;1.00;;;;;;;;;;10384052;28;20029;-58
2022/09/17 15:31:36;;;;;;;1.67;0.70;;;;;;;;;;10394383;28;20114;-57
2022/09/17 15:36:36;;;;;;;2.45;0.52;;;;;;;;;;10371916;28;20030;-57
2022/09/17 15:41:38;;;;;;;2.72;0.90;;;;;;;;;;10391813;28;20380;-57
2022/09/17 15:46:38;;;;;;;2.50;0.90;;;;;;;;;;10369421;28;20034;-57
2022/09/17 15:51:39;;;;;;;2.40;0.53;;;;;;;;;;10381455;28;20481;-57
2022/09/17 15:56:40;;;;;;;0.65;0.50;;;;;;;;;;10367871;28;20064;-58
2022/09/17 16:01:43;;;;;;;0.60;0.57;;;;;;;;;;10379480;28;20437;-57
2022/09/17 16:07:06;;;;;;;0.82;0.50;;;;;;;;;;10381653;28;20483;-58
2022/09/17 16:12:08;;;;;;;2.88;0.50;;;;;;;;;;10354875;28;20197;-57
2022/09/17 16:17:19;;;;;;;0.40;0.40;;;;;;;;;;10368889;28;20022;-57
2022/09/17 16:22:19;;;;;;;0.65;0.40;;;;;;;;;;10352575;28;20033;-58
2022/09/17 16:27:24;;;;;;;1.10;0.50;;;;;;;;;;10393031;28;20032;-57
2022/09/17 16:32:24;;;;;;;1.15;0.50;;;;;;;;;;10366878;28;20040;-57
2022/09/17 16:37:25;;;;;;;0.45;0.45;;;;;;;;;;10377517;28;20033;-57
2022/09/17 16:42:28;;;;;;;2.83;0.50;;;;;;;;;;10358679;28;20193;-58
2022/09/17 16:47:33;;;;;;;1.85;0.50;;;;;;;;;;10367042;28;20034;-58
2022/09/17 16:52:34;;;;;;;0.55;0.55;;;;;;;;;;10362508;28;20067;-57
2022/09/17 16:57:34;;;;;;;0.75;0.50;;;;;;;;;;10372275;28;20030;-57
2022/09/17 17:02:34;;;;;;;0.50;0.50;;;;;;;;;;10380502;28;20026;-57
2022/09/17 17:07:35;;;;;;;1.20;0.60;;;;;;;;;;10375914;28;20384;-59
2022/09/17 17:12:36;;;;;;;1.10;0.70;;;;;;;;;;10367812;28;20444;-57
2022/09/17 17:17:36;;;;;;;1.85;0.70;;;;;;;;;;10364242;28;20053;-57
2022/09/17 17:22:38;;;;;;;1.70;0.60;;;;;;;;;;10367789;28;20033;-59
2022/09/17 17:27:38;;;;;;;5.28;0.80;;;;;;;;;;10369210;28;20101;-57
2022/09/17 17:32:39;;;;;;;2.13;0.77;;;;;;;;;;10353869;28;20044;-58
2022/09/17 17:37:39;;;;;;;1.60;0.80;;;;;;;;;;10355262;28;20052;-60
2022/09/17 17:42:42;;;;;;;2.35;0.82;;;;;;;;;;10360648;28;20040;-57
2022/09/17 17:47:42;;;;;;;1.15;0.80;;;;;;;;;;10373524;28;20033;-58
2022/09/17 17:52:46;;;;;;;1.87;0.73;;;;;;;;;;10370173;28;20026;-58
2022/09/17 17:57:46;;;;;;;3.95;0.70;;;;;;;;;;10372389;28;20498;-57
2022/09/17 18:02:48;;;;;;;0.82;0.63;;;;;;;;;;10365590;28;20117;-58
2022/09/17 18:07:49;;;;;;;1.02;0.88;;;;;;;;;;10379381;28;20029;-58
2022/09/17 18:12:49;;;;;;;0.87;0.87;;;;;;;;;;10377795;28;20385;-57
2022/09/17 18:17:52;;;;;;;0.70;0.70;;;;;;;;;;10365730;28;20038;-57
2022/09/17 18:22:52;;;;;;;3.17;1.00;;;;;;;;;;10375348;28;20025;-57
2022/09/17 18:27:52;;;;;;;2.88;1.20;;;;;;;;;;10382323;28;20049;-58
2022/09/17 18:32:53;;;;;;;11.20;1.70;;;;;;;;;;10358112;28;20036;-57
2022/09/17 18:37:53;;;;;;;4.43;1.50;;;;;;;;;;10363224;28;20030;-55
2022/09/17 18:42:53;;;;;;;1.77;1.23;;;;;;;;;;10360877;28;20046;-55
2022/09/17 18:47:54;;;;;;;5.07;1.00;;;;;;;;;;10362640;28;20191;-55
2022/09/17 18:52:54;;;;;;;2.90;1.00;;;;;;;;;;10373629;28;20116;-53
2022/09/17 18:57:54;;;;;;;1.38;1.00;;;;;;;;;;10381130;28;20030;-55
2022/09/17 19:02:54;;;;;;;2.83;1.20;;;;;;;;;;10357141;28;20037;-56
2022/09/17 19:07:55;;;;;;;1.42;1.10;;;;;;;;;;10360295;28;20034;-55
2022/09/17 19:12:55;;;;;;;3.03;0.98;;;;;;;;;;10363783;28;20039;-54
2022/09/17 19:17:57;;;;;;;3.30;0.95;;;;;;;;;;10357947;28;20026;-55
2022/09/17 19:22:57;;;;;;;2.30;1.27;;;;;;;;;;10395579;28;20421;-53
2022/09/17 19:27:57;;;;;;;2.38;0.80;;;;;;;;;;10352583;28;20022;-56
2022/09/17 19:32:58;;;;;;;1.23;0.82;;;;;;;;;;10369865;28;20427;-54
2022/09/17 19:37:58;;;;;;;1.13;0.90;;;;;;;;;;10399178;28;20531;-56
2022/09/17 19:42:58;;;;;;;2.40;1.10;;;;;;;;;;10364813;28;21037;-54
2022/09/17 19:48:00;;;;;;;1.05;0.82;;;;;;;;;;10370443;28;20543;-55
2022/09/17 19:53:00;;;;;;;4.75;1.17;;;;;;;;;;10362438;28;20036;-54
2022/09/17 19:58:03;;;;;;;1.52;0.95;;;;;;;;;;10364535;28;20428;-55
2022/09/17 20:03:04;;;;;;;2.15;1.13;;;;;;;;;;10371347;28;20037;-54
2022/09/17 20:08:04;;;;;;;2.90;1.17;;;;;;;;;;10372828;28;20040;-54
2022/09/17 20:13:05;;;;;;;1.20;0.70;;;;;;;;;;10359543;28;20132;-54
2022/09/17 20:18:10;;;;;;;1.38;0.85;;;;;;;;;;10362126;28;20497;-57
2022/09/17 20:23:24;;;;;;;2.08;0.68;;;;;;;;;;10380662;28;20029;-53
2022/09/17 20:28:26;;;;;;;3.08;0.88;;;;;;;;;;10365938;28;20080;-55
2022/09/17 20:33:26;;;;;;;0.70;0.70;;;;;;;;;;10374835;28;20064;-55
2022/09/17 20:38:27;;;;;;;0.98;0.77;;;;;;;;;;10388700;28;20088;-54
2022/09/17 20:43:27;;;;;;;3.45;0.98;;;;;;;;;;10372343;28;20366;-53
2022/09/17 20:48:31;;;;;;;2.22;1.02;;;;;;;;;;10381935;28;20068;-55
2022/09/17 20:53:34;;;;;;;2.95;0.77;;;;;;;;;;10373941;28;20037;-55
2022/09/17 20:58:36;;;;;;;1.60;0.98;;;;;;;;;;10372453;28;20017;-54
2022/09/17 21:03:37;;;;;;;2.15;0.90;;;;;;;;;;10382993;28;20455;-54
2022/09/17 21:08:37;;;;;;;1.20;0.88;;;;;;;;;;10390776;28;20033;-54
2022/09/17 21:13:38;;;;;;;2.40;1.03;;;;;;;;;;10374503;28;20053;-55
2022/09/17 21:18:39;;;;;;;1.27;0.90;;;;;;;;;;10365335;28;20065;-56
2022/09/17 21:23:40;;;;;;;3.78;1.00;;;;;;;;;;10362879;28;20290;-55
2022/09/17 21:28:41;;;;;;;1.17;0.82;;;;;;;;;;10397264;28;20169;-54
2022/09/17 21:33:42;;;;;;;2.17;0.85;;;;;;;;;;10365783;28;20068;-54
2022/09/17 21:38:43;;;;;;;1.80;0.80;;;;;;;;;;10359186;28;20045;-55
2022/09/17 21:43:43;;;;;;;0.80;0.80;;;;;;;;;;10358699;28;20052;-55
2022/09/17 21:48:48;;;;;;;1.88;0.90;;;;;;;;;;10359814;28;20026;-53
2022/09/17 21:53:52;;;;;;;1.98;0.70;;;;;;;;;;10357437;28;20036;-57
2022/09/17 21:58:53;;;;;;;3.42;1.02;;;;;;;;;;10364181;28;20169;-58
2022/09/17 22:03:54;;;;;;;1.88;0.90;;;;;;;;;;10371570;28;20030;-58
2022/09/17 22:08:55;;;;;;;1.25;0.98;;;;;;;;;;10373225;28;20079;-58
2022/09/17 22:13:57;;;;;;;3.00;0.98;;;;;;;;;;10365541;28;20050;-57
2022/09/17 22:19:04;;;;;;;8.80;1.10;;;;;;;;;;10372591;28;20293;-58
2022/09/17 22:24:05;;;;;;;3.50;1.10;;;;;;;;;;10390931;28;20068;-58
2022/09/17 22:29:07;;;;;;;7.68;1.33;;;;;;;;;;10371156;28;20056;-57
2022/09/17 22:34:08;;;;;;;5.10;1.63;;;;;;;;;;10372031;28;20034;-57
2022/09/17 22:39:09;;;;;;;3.35;1.38;;;;;;;;;;10366716;28;20393;-58
2022/09/17 22:44:10;;;;;;;4.85;1.45;;;;;;;;;;10382576;28;20034;-58
2022/09/17 22:49:11;;;;;;;3.85;1.35;;;;;;;;;;10377595;28;20069;-58
2022/09/17 22:54:13;;;;;;;2.28;1.25;;;;;;;;;;10387021;28;20116;-57
2022/09/17 22:59:13;;;;;;;5.15;1.40;;;;;;;;;;10372472;28;21032;-57
2022/09/17 23:04:13;;;;;;;2.83;1.20;;;;;;;;;;10370673;28;20069;-58
2022/09/17 23:09:14;;;;;;;5.00;1.80;;;;;;;;;;10375709;28;20471;-58
2022/09/17 23:14:15;;;;;;;3.33;1.10;;;;;;;;;;10377828;28;20050;-57
2022/09/17 23:19:17;;;;;;;1.98;0.95;;;;;;;;;;10377108;28;20042;-58
2022/09/17 23:24:19;;;;;;;2.95;1.17;;;;;;;;;;10363307;28;20065;-57
2022/09/17 23:29:19;;;;;;;3.35;1.20;;;;;;;;;;10363412;28;20029;-57
2022/09/17 23:34:19;;;;;;;2.00;1.10;;;;;;;;;;10370033;28;20037;-57
2022/09/17 23:39:19;;;;;;;1.37;1.10;;;;;;;;;;10381146;28;20033;-57
2022/09/17 23:44:20;;;;;;;1.75;0.80;;;;;;;;;;10370361;28;20021;-57
2022/09/17 23:49:20;;;;;;;2.77;1.10;;;;;;;;;;10364331;28;20057;-57
2022/09/17 23:54:20;;;;;;;2.97;1.05;;;;;;;;;;10369938;28;20071;-57
2022/09/17 23:59:21;;;;;;;2.13;1.02;;;;;;;;;;10369019;28;20022;-57
